Time;durP1;ratioP1;P1;durP2;ratioP2;P2;SDS_P1;SDS_P2;PMS_P1;PMS_P2;Temp;Humidity;BMP_temperature;BMP_pressure;BME280_temperature;BME280_humidity;BME280_pressure;Samples;Min_cycle;Max_cycle;Signal;HPM_P1;HPM_P2
2022/03/27 00:01:15;;;;;;;7.93;6.55;;;;;;;10.55;84.12;103237.91;5094395;28;20099;-75
2022/03/27 00:03:41;;;;;;;8.05;6.75;;;;;;;10.61;83.95;103237.44;5092925;28;20115;-75
2022/03/27 00:06:06;;;;;;;8.80;6.65;;;;;;;10.60;83.48;103238.41;5091594;28;20038;-75
2022/03/27 00:08:31;;;;;;;10.35;7.53;;;;;;;10.63;83.46;103235.47;5092547;28;20119;-74
2022/03/27 00:13:41;;;;;;;7.63;6.82;;;;;;;10.66;82.64;103227.13;5092972;28;20097;-74
2022/03/27 00:16:07;;;;;;;6.60;6.00;;;;;;;10.59;82.86;103236.72;5091568;28;20031;-74
2022/03/27 00:18:32;;;;;;;7.13;5.32;;;;;;;10.55;82.71;103230.69;5092810;28;20044;-75
2022/03/27 00:20:57;;;;;;;6.15;5.13;;;;;;;10.57;82.57;103233.28;5093163;28;20107;-74
2022/03/27 00:23:22;;;;;;;6.03;5.10;;;;;;;10.55;82.47;103229.84;5092789;28;20130;-76
2022/03/27 00:25:50;;;;;;;8.60;5.82;;;;;;;10.51;82.77;103234.63;5092884;28;20040;-75
2022/03/27 00:28:15;;;;;;;5.53;5.03;;;;;;;10.50;82.70;103227.50;5091806;28;20028;-74
2022/03/27 00:30:41;;;;;;;6.20;5.53;;;;;;;10.53;82.67;103227.28;5091339;28;20051;-74
2022/03/27 00:33:07;;;;;;;6.53;5.15;;;;;;;10.53;83.01;103234.47;5092786;28;20075;-75
2022/03/27 00:35:32;;;;;;;7.20;5.57;;;;;;;10.51;83.03;103228.38;5090877;28;20114;-75
2022/03/27 00:37:58;;;;;;;7.13;5.40;;;;;;;10.50;83.14;103230.19;5091501;28;20062;-74
2022/03/27 00:40:23;;;;;;;6.03;5.05;;;;;;;10.49;82.87;103230.34;5091824;28;20135;-74
2022/03/27 00:42:48;;;;;;;6.40;5.20;;;;;;;10.46;83.38;103231.44;5091714;28;20024;-73
2022/03/27 00:45:14;;;;;;;7.13;5.57;;;;;;;10.49;83.63;103238.41;5091503;28;20053;-74
2022/03/27 00:47:39;;;;;;;7.38;5.25;;;;;;;10.49;83.66;103231.19;5092895;28;20044;-75
2022/03/27 00:50:05;;;;;;;6.82;5.47;;;;;;;10.48;83.22;103231.34;5092299;28;20035;-74
2022/03/27 00:52:31;;;;;;;6.93;5.55;;;;;;;10.51;83.49;103229.25;5091393;28;20036;-74
2022/03/27 00:54:56;;;;;;;6.40;5.47;;;;;;;10.57;83.23;103233.28;5092459;28;20475;-73
2022/03/27 00:57:22;;;;;;;7.32;5.50;;;;;;;10.55;82.91;103227.16;5092472;28;20039;-74
2022/03/27 00:59:47;;;;;;;8.77;5.60;;;;;;;10.56;82.93;103231.56;5091963;28;20537;-74
2022/03/27 01:02:13;;;;;;;6.60;5.60;;;;;;;10.59;82.74;103228.63;5091908;28;20379;-74
2022/03/27 01:04:42;;;;;;;8.13;5.70;;;;;;;10.58;82.82;103237.66;5091628;28;20380;-75
2022/03/27 01:07:07;;;;;;;7.80;5.72;;;;;;;10.50;82.80;103232.03;5090069;28;20491;-74
2022/03/27 01:09:35;;;;;;;9.82;6.32;;;;;;;10.53;83.04;103229.09;5091642;28;20066;-74
2022/03/27 01:12:17;;;;;;;;;;;;;;;10.55;82.65;103221.75;5092828;28;20024;-74
2022/03/27 01:14:44;;;;;;;7.47;6.45;;;;;;;10.48;82.73;103220.56;5090535;28;20291;-74
2022/03/27 01:17:13;;;;;;;10.23;7.20;;;;;;;10.48;82.86;103236.72;5091425;28;20490;-73
2022/03/27 01:19:40;;;;;;;8.23;6.85;;;;;;;10.44;83.12;103224.47;5091918;28;20036;-73
2022/03/27 01:22:06;;;;;;;11.30;7.70;;;;;;;10.41;83.21;103219.34;5092654;28;20020;-75
2022/03/27 01:24:31;;;;;;;9.80;7.72;;;;;;;10.41;83.37;103219.34;5093564;28;20300;-74
2022/03/27 01:26:56;;;;;;;11.27;7.75;;;;;;;10.38;83.25;103219.59;5092085;28;20063;-75
2022/03/27 01:29:22;;;;;;;10.98;8.25;;;;;;;10.31;83.57;103220.06;5091755;28;20036;-75
2022/03/27 01:31:47;;;;;;;11.15;8.25;;;;;;;10.30;83.48;103217.50;5092402;28;20031;-75
2022/03/27 01:34:13;;;;;;;12.98;8.68;;;;;;;10.22;83.71;103218.06;5091562;28;20031;-75
2022/03/27 01:36:38;;;;;;;13.32;9.02;;;;;;;10.21;83.86;103216.34;5091843;28;20107;-75
2022/03/27 01:39:06;;;;;;;15.65;9.38;;;;;;;10.18;83.73;103210.34;5091765;28;20383;-75
2022/03/27 01:41:32;;;;;;;;;;;;;;;10.15;83.98;103213.28;5090188;28;20128;-75
2022/03/27 01:43:59;;;;;;;16.60;9.27;;;;;;;10.14;84.21;103204.38;5091406;28;20368;-75
2022/03/27 01:46:26;;;;;;;15.95;9.70;;;;;;;10.10;83.95;103210.97;5091605;28;20024;-74
2022/03/27 01:48:51;;;;;;;16.02;9.10;;;;;;;10.07;83.96;103212.06;5080758;28;20572;-74
2022/03/27 01:51:16;;;;;;;16.40;10.55;;;;;;;10.09;84.19;103214.63;5090588;28;20027;-74
2022/03/27 01:53:42;;;;;;;15.63;9.95;;;;;;;10.02;83.87;103208.00;5091408;28;20020;-75
2022/03/27 01:56:08;;;;;;;14.90;9.32;;;;;;;9.98;84.56;103215.47;5090822;28;20032;-74
2022/03/27 01:58:38;;;;;;;13.65;9.57;;;;;;;9.92;84.40;103213.25;5091553;28;20115;-74
2022/03/27 02:01:05;;;;;;;15.90;11.48;;;;;;;9.88;84.64;103211.78;5090881;28;20020;-74
2022/03/27 02:03:30;;;;;;;16.42;11.20;;;;;;;9.83;85.02;103209.44;5089713;28;20395;-74
2022/03/27 02:08:33;;;;;;;15.55;9.82;;;;;;;9.81;84.63;103210.53;4701367;22;20053;-30
2022/03/27 02:10:58;;;;;;;18.55;10.38;;;;;;;9.81;84.62;103206.00;5071544;28;20024;-31
2022/03/27 02:13:23;;;;;;;16.58;10.70;;;;;;;9.76;84.97;103207.34;5071323;28;20041;-31
2022/03/27 02:15:50;;;;;;;17.48;9.88;;;;;;;9.82;84.60;103213.13;5073136;28;20067;-31
2022/03/27 02:18:16;;;;;;;15.45;10.27;;;;;;;9.75;84.87;103211.88;5072232;28;20193;-30
2022/03/27 02:20:43;;;;;;;20.27;11.73;;;;;;;9.74;84.95;103212.88;5074753;28;20040;-31
2022/03/27 02:23:08;;;;;;;16.95;10.85;;;;;;;9.71;85.06;103204.16;5070733;28;20387;-30
2022/03/27 02:25:34;;;;;;;17.00;10.95;;;;;;;9.71;85.09;103209.53;5070953;28;20086;-30
2022/03/27 02:27:59;;;;;;;16.77;10.90;;;;;;;9.72;85.13;103201.38;5077514;28;20056;-30
2022/03/27 02:30:24;;;;;;;16.75;10.93;;;;;;;9.68;84.87;103206.09;5070638;28;20067;-31
2022/03/27 02:32:50;;;;;;;18.63;12.45;;;;;;;9.72;84.84;103206.75;5080327;28;20077;-32
2022/03/27 02:35:15;;;;;;;19.40;11.82;;;;;;;9.65;84.68;103205.50;5071005;28;20020;-30
2022/03/27 02:37:41;;;;;;;19.40;12.45;;;;;;;9.63;85.29;103212.81;5071014;28;20078;-30
2022/03/27 02:40:06;;;;;;;20.75;12.38;;;;;;;9.57;85.60;103202.53;5069844;28;20044;-31
2022/03/27 02:42:32;;;;;;;20.33;13.10;;;;;;;9.53;85.41;103201.94;5077309;28;20036;-30
2022/03/27 02:44:57;;;;;;;19.63;12.90;;;;;;;9.51;85.71;103198.50;5074305;28;20020;-31
2022/03/27 02:47:22;;;;;;;18.48;11.82;;;;;;;9.42;85.91;103194.66;5070968;28;20344;-31
2022/03/27 02:49:48;;;;;;;21.77;12.90;;;;;;;9.43;86.16;103203.59;5070880;28;20608;-32
2022/03/27 02:52:13;;;;;;;23.13;13.02;;;;;;;9.38;86.08;103190.50;5072314;28;20028;-30
2022/03/27 02:54:38;;;;;;;22.50;13.88;;;;;;;9.42;86.10;103191.13;5075024;28;20111;-31
2022/03/27 02:57:04;;;;;;;22.75;13.88;;;;;;;9.41;86.22;103198.31;5075032;28;20029;-31
2022/03/27 02:59:29;;;;;;;21.63;12.80;;;;;;;9.42;86.34;103194.66;5075176;28;20040;-30
2022/03/27 03:01:55;;;;;;;20.52;12.90;;;;;;;9.48;86.37;103187.09;5073235;28;20047;-31
2022/03/27 03:04:20;;;;;;;20.05;13.00;;;;;;;9.51;86.04;103187.75;5074673;28;20482;-31
2022/03/27 03:06:46;;;;;;;17.50;11.38;;;;;;;9.54;85.64;103186.66;5074036;28;20052;-30
2022/03/27 03:09:11;;;;;;;18.70;11.90;;;;;;;9.52;84.96;103185.91;5074584;28;20116;-33
2022/03/27 03:11:37;;;;;;;18.42;12.43;;;;;;;9.42;85.24;103189.28;5074153;28;20041;-32
2022/03/27 03:14:02;;;;;;;17.25;11.40;;;;;;;9.29;85.32;103185.81;5073709;28;20030;-31
2022/03/27 03:16:28;;;;;;;17.17;11.68;;;;;;;9.21;85.27;103190.91;5071715;28;20040;-31
2022/03/27 03:18:54;;;;;;;17.48;10.70;;;;;;;9.07;85.44;103183.91;5056440;28;20450;-32
2022/03/27 03:21:21;;;;;;;17.38;11.35;;;;;;;8.96;85.84;103182.00;5056095;28;20071;-31
2022/03/27 03:23:47;;;;;;;15.93;10.52;;;;;;;8.91;86.04;103184.19;5076275;28;20035;-31
2022/03/27 03:26:12;;;;;;;18.52;10.35;;;;;;;8.86;86.52;103189.03;5074281;28;20032;-30
2022/03/27 03:28:37;;;;;;;17.85;10.95;;;;;;;8.81;86.10;103185.81;5074623;28;20051;-31
2022/03/27 03:31:03;;;;;;;19.13;11.60;;;;;;;8.82;86.34;103187.56;5074628;28;20035;-31
2022/03/27 03:33:29;;;;;;;17.40;10.88;;;;;;;8.78;86.64;103183.38;5073962;28;20380;-31
2022/03/27 03:35:54;;;;;;;18.83;11.45;;;;;;;8.82;86.97;103184.00;5073658;28;20028;-31
2022/03/27 03:38:20;;;;;;;17.25;10.73;;;;;;;8.83;86.48;103181.22;5074345;28;20031;-31
2022/03/27 03:40:46;;;;;;;18.75;11.23;;;;;;;8.86;86.16;103186.34;5073965;28;20032;-30
2022/03/27 03:43:12;;;;;;;17.27;11.68;;;;;;;8.83;86.36;103186.56;5073848;28;20040;-32
2022/03/27 03:45:38;;;;;;;17.77;10.95;;;;;;;8.78;86.23;103178.00;5073992;28;20098;-29
2022/03/27 03:48:04;;;;;;;18.02;10.98;;;;;;;8.81;87.17;103179.59;5074478;28;20024;-31
2022/03/27 03:50:30;;;;;;;18.70;11.48;;;;;;;8.85;86.67;103173.91;5074347;28;20024;-31
2022/03/27 03:52:56;;;;;;;17.08;10.65;;;;;;;8.89;86.46;103180.75;5056081;28;20036;-32
2022/03/27 03:55:21;;;;;;;19.52;11.00;;;;;;;8.87;85.99;103177.31;5074377;28;20036;-30
2022/03/27 03:57:46;;;;;;;19.08;11.10;;;;;;;8.86;86.02;103185.50;5073220;28;20033;-31
2022/03/27 04:00:12;;;;;;;17.20;11.10;;;;;;;8.78;86.10;103184.22;5073483;28;20041;-30
2022/03/27 04:02:39;;;;;;;18.33;11.55;;;;;;;8.68;86.50;103180.50;5071808;28;20103;-30
2022/03/27 04:05:05;;;;;;;15.98;11.68;;;;;;;8.59;87.08;103183.00;5071349;28;20146;-31
2022/03/27 04:07:31;;;;;;;17.05;10.98;;;;;;;8.49;87.44;103186.34;5071889;28;20056;-31
2022/03/27 04:09:56;;;;;;;18.17;11.77;;;;;;;8.39;88.17;103192.44;5072103;28;20382;-31
2022/03/27 04:12:22;;;;;;;17.33;10.88;;;;;;;8.35;88.34;103183.78;5072225;28;20034;-31
2022/03/27 04:14:47;;;;;;;17.02;11.20;;;;;;;8.36;88.97;103185.47;5072106;28;20035;-30
2022/03/27 04:17:12;;;;;;;19.92;11.10;;;;;;;8.39;88.88;103197.81;5071835;28;20020;-30
2022/03/27 04:19:40;;;;;;;19.00;12.38;;;;;;;8.42;88.95;103182.38;5071474;28;20463;-32
2022/03/27 04:22:05;;;;;;;20.63;12.63;;;;;;;8.49;88.70;103180.13;5072333;28;20039;-31
2022/03/27 04:24:30;;;;;;;17.92;11.90;;;;;;;8.51;88.20;103187.09;5069855;28;20025;-31
2022/03/27 04:26:56;;;;;;;17.60;11.85;;;;;;;8.54;88.54;103184.19;5070556;28;20085;-32
2022/03/27 04:29:21;;;;;;;18.20;11.88;;;;;;;8.52;87.64;103182.59;5070035;28;20027;-31
2022/03/27 04:31:47;;;;;;;17.08;10.70;;;;;;;8.45;87.26;103187.56;5072206;28;20031;-31
2022/03/27 04:34:12;;;;;;;18.48;11.73;;;;;;;8.43;88.07;103181.44;5070427;28;20036;-31
2022/03/27 04:36:40;;;;;;;19.17;12.25;;;;;;;8.42;88.09;103189.56;5071873;28;20028;-31
2022/03/27 04:39:06;;;;;;;21.17;12.85;;;;;;;8.34;88.19;103190.09;5071486;28;20426;-30
2022/03/27 04:41:31;;;;;;;18.55;11.93;;;;;;;8.35;88.43;103186.47;5071426;28;20059;-31
2022/03/27 04:43:57;;;;;;;17.80;11.93;;;;;;;8.37;88.12;103189.88;5071942;28;20067;-31
2022/03/27 04:46:22;;;;;;;21.35;12.63;;;;;;;8.38;88.59;103196.97;5070650;28;20033;-31
2022/03/27 04:48:47;;;;;;;21.38;12.98;;;;;;;8.43;88.13;103194.00;5071273;28;20032;-30
2022/03/27 04:51:13;;;;;;;21.05;12.90;;;;;;;8.43;88.01;103199.38;5072077;28;20028;-31
2022/03/27 04:53:38;;;;;;;22.50;13.23;;;;;;;8.46;88.54;103200.00;5071209;28;20025;-31
2022/03/27 04:56:05;;;;;;;20.27;12.77;;;;;;;8.50;88.14;103198.78;5070381;28;20024;-30
2022/03/27 04:58:30;;;;;;;21.67;12.30;;;;;;;8.52;87.39;103196.84;5068916;28;20037;-31
2022/03/27 05:00:55;;;;;;;21.88;12.88;;;;;;;8.54;86.99;103200.28;5071762;28;20020;-30
2022/03/27 05:03:21;;;;;;;20.33;12.15;;;;;;;8.51;86.89;103208.56;5069792;28;20032;-30
2022/03/27 05:05:46;;;;;;;19.85;10.40;;;;;;;8.44;87.10;103212.66;5071517;28;20037;-31
2022/03/27 05:08:11;;;;;;;11.68;7.28;;;;;;;8.34;85.60;103206.19;5071378;28;20098;-31
2022/03/27 05:10:38;;;;;;;9.88;6.75;;;;;;;8.19;85.43;103207.28;5070197;28;20515;-30
2022/03/27 05:13:04;;;;;;;11.30;7.07;;;;;;;8.20;85.99;103203.66;5069269;28;20036;-30
2022/03/27 05:15:29;;;;;;;9.13;6.72;;;;;;;8.20;85.99;103203.66;5070522;28;20497;-31
2022/03/27 05:17:58;;;;;;;11.70;7.35;;;;;;;8.20;85.54;103203.66;5071201;28;20037;-32
2022/03/27 05:20:25;;;;;;;9.15;6.72;;;;;;;8.15;84.79;103212.00;5070237;28;20049;-31
2022/03/27 05:22:51;;;;;;;9.20;6.55;;;;;;;8.06;85.00;103208.16;5062310;28;20097;-31
2022/03/27 05:25:16;;;;;;;10.73;6.75;;;;;;;8.02;85.28;103212.00;5070290;28;20024;-30
2022/03/27 05:27:54;;;;;;;10.52;6.80;;;;;;;8.05;85.05;103206.41;5068824;28;20033;-32
2022/03/27 05:30:21;;;;;;;10.23;7.47;;;;;;;8.00;85.04;103207.72;5067273;28;20021;-31
2022/03/27 05:32:47;;;;;;;10.73;7.40;;;;;;;8.00;85.48;103207.72;5070375;28;20028;-32
2022/03/27 05:35:13;;;;;;;10.50;7.47;;;;;;;7.99;85.56;103206.00;5069215;28;20502;-30
2022/03/27 05:37:39;;;;;;;9.80;7.90;;;;;;;8.06;85.70;103204.63;5071306;28;20042;-30
2022/03/27 05:40:06;;;;;;;12.25;8.40;;;;;;;8.03;85.02;103210.19;5069543;28;20040;-29
2022/03/27 05:42:32;;;;;;;10.55;7.45;;;;;;;8.00;85.44;103219.28;5071181;28;20082;-29
2022/03/27 05:44:57;;;;;;;10.90;7.80;;;;;;;7.91;85.41;103214.59;5070174;28;20040;-31
2022/03/27 05:47:23;;;;;;;10.90;7.40;;;;;;;7.86;84.80;103211.34;5069750;28;20028;-32
2022/03/27 05:49:48;;;;;;;11.43;7.68;;;;;;;7.73;85.10;103200.63;5068577;28;20440;-31
2022/03/27 05:52:16;;;;;;;11.07;8.23;;;;;;;7.73;85.93;103207.81;5070628;28;20568;-29
2022/03/27 05:54:41;;;;;;;;;;;;;;;7.78;86.05;103208.34;5066955;28;20393;-30
2022/03/27 05:57:07;;;;;;;11.80;7.25;;;;;;;7.84;85.84;103205.25;5067687;28;19998;-31
2022/03/27 05:59:32;;;;;;;12.43;7.97;;;;;;;7.88;85.46;103201.41;5069879;28;20044;-31
2022/03/27 06:01:57;;;;;;;13.65;8.50;;;;;;;7.93;85.51;103207.28;5070332;28;20419;-32
2022/03/27 06:04:23;;;;;;;10.30;7.35;;;;;;;7.92;84.91;103213.59;5070390;28;20405;-30
2022/03/27 06:06:48;;;;;;;13.27;8.52;;;;;;;7.90;85.21;103204.84;5070048;28;20028;-30
2022/03/27 06:09:13;;;;;;;12.75;8.55;;;;;;;7.93;84.77;103206.44;5069415;28;20044;-32
2022/03/27 06:11:39;;;;;;;14.02;8.13;;;;;;;7.96;84.75;103215.13;5066723;28;20308;-28
2022/03/27 06:14:04;;;;;;;11.90;7.85;;;;;;;7.95;84.72;103210.72;5066887;28;20033;-31
2022/03/27 06:16:30;;;;;;;9.35;7.22;;;;;;;7.99;83.99;103217.59;5067884;28;20055;-30
2022/03/27 06:18:55;;;;;;;14.40;8.18;;;;;;;8.04;83.53;103215.44;5066774;28;20055;-31
2022/03/27 06:21:21;;;;;;;9.75;6.88;;;;;;;8.05;82.37;103216.28;5067534;28;20090;-30
2022/03/27 06:23:46;;;;;;;9.85;6.07;;;;;;;7.96;81.67;103217.81;5067453;28;20395;-30
2022/03/27 06:26:11;;;;;;;11.27;6.90;;;;;;;7.90;81.97;103220.91;5067041;28;20024;-31
2022/03/27 06:28:38;;;;;;;9.80;6.78;;;;;;;7.89;81.87;103221.88;5067024;28;20035;-32
2022/03/27 06:31:04;;;;;;;9.70;6.78;;;;;;;7.97;82.12;103227.56;5067565;28;20025;-29
2022/03/27 06:33:29;;;;;;;9.85;6.85;;;;;;;8.03;81.44;103227.16;5065832;28;20583;-31
2022/03/27 06:35:54;;;;;;;13.43;6.60;;;;;;;8.07;81.04;103225.94;5065688;28;20038;-30
2022/03/27 06:38:21;;;;;;;10.60;6.60;;;;;;;8.10;80.46;103230.25;5064081;28;20025;-31
2022/03/27 06:40:46;;;;;;;10.13;6.45;;;;;;;8.09;80.51;103229.41;5060207;28;20037;-30
2022/03/27 06:43:11;;;;;;;10.85;5.93;;;;;;;8.10;79.96;103231.09;5061363;28;20528;-30
2022/03/27 06:45:38;;;;;;;10.43;5.85;;;;;;;8.04;80.30;103236.03;5059591;28;20021;-30
2022/03/27 06:48:04;;;;;;;8.90;6.25;;;;;;;8.06;80.38;103232.28;5066960;28;20043;-32
2022/03/27 06:50:29;;;;;;;8.93;5.70;;;;;;;8.16;80.35;103228.94;5065680;28;20025;-30
2022/03/27 06:52:54;;;;;;;9.40;5.55;;;;;;;8.23;79.78;103235.63;5060272;28;20410;-30
2022/03/27 06:55:20;;;;;;;13.63;6.95;;;;;;;8.19;79.52;103224.25;5066877;28;20471;-31
2022/03/27 06:57:45;;;;;;;9.65;5.90;;;;;;;8.37;79.90;103222.06;5067204;28;20040;-30
2022/03/27 07:03:03;;;;;;;7.72;5.95;;;;;;;8.66;78.75;103227.22;5066295;28;20035;-32
2022/03/27 07:05:30;;;;;;;8.75;6.00;;;;;;;9.16;78.50;103219.94;5059491;28;20092;-30
2022/03/27 07:07:55;;;;;;;6.67;5.50;;;;;;;10.17;75.49;103219.41;5063427;28;20094;-31
2022/03/27 07:10:22;;;;;;;7.40;5.25;;;;;;;11.70;68.56;103227.56;5065789;28;20294;-31
2022/03/27 07:12:48;;;;;;;5.75;4.15;;;;;;;12.87;63.00;103216.31;5064361;28;20550;-31
2022/03/27 07:15:13;;;;;;;4.95;4.35;;;;;;;13.83;60.01;103230.06;5065265;28;20024;-31
2022/03/27 07:17:47;;;;;;;6.65;4.30;;;;;;;14.73;56.77;103234.03;5064459;28;20039;-31
2022/03/27 07:20:17;;;;;;;5.30;3.67;;;;;;;15.45;54.05;103237.66;5067261;28;20100;-31
2022/03/27 07:22:43;;;;;;;3.65;3.30;;;;;;;15.72;52.11;103235.91;5068731;28;20399;-30
2022/03/27 07:25:09;;;;;;;5.03;3.70;;;;;;;15.98;51.05;103228.66;5068256;28;20017;-31
2022/03/27 07:27:35;;;;;;;4.38;3.30;;;;;;;16.23;49.09;103228.78;5068555;28;20036;-31
2022/03/27 07:30:00;;;;;;;4.20;3.67;;;;;;;16.23;48.81;103226.91;5069247;28;20467;-31
2022/03/27 07:32:25;;;;;;;3.70;3.25;;;;;;;16.53;47.71;103229.25;5069081;28;20097;-32
2022/03/27 07:34:51;;;;;;;4.00;3.17;;;;;;;16.54;46.62;103234.56;5069420;28;20059;-32
2022/03/27 07:37:16;;;;;;;4.25;3.50;;;;;;;16.98;46.21;103230.81;5069792;28;20021;-32
2022/03/27 07:39:42;;;;;;;3.70;3.20;;;;;;;17.45;45.05;103235.66;5072212;28;20471;-32
2022/03/27 07:42:07;;;;;;;3.72;3.33;;;;;;;17.78;44.96;103226.47;5071604;28;20390;-31
2022/03/27 07:44:33;;;;;;;6.47;3.63;;;;;;;18.29;43.22;103220.75;5072768;28;20032;-31
2022/03/27 07:46:59;;;;;;;4.30;3.53;;;;;;;18.55;42.05;103223.22;5071838;28;20694;-32
2022/03/27 07:49:25;;;;;;;4.45;3.70;;;;;;;18.91;39.56;103228.19;5073714;28;20082;-32
2022/03/27 07:51:51;;;;;;;4.40;3.63;;;;;;;18.77;40.36;103221.63;5074212;28;20036;-32
2022/03/27 07:54:16;;;;;;;4.97;4.40;;;;;;;18.60;39.54;103228.16;5072140;28;20428;-32
2022/03/27 07:56:42;;;;;;;5.18;4.63;;;;;;;18.64;38.33;103234.94;5071881;28;20032;-29
2022/03/27 07:59:07;;;;;;;5.28;4.40;;;;;;;18.85;38.30;103239.81;5072461;28;20027;-31
2022/03/27 08:01:33;;;;;;;4.57;4.00;;;;;;;19.20;37.49;103234.84;5073773;28;20175;-30
2022/03/27 08:03:59;;;;;;;4.30;3.88;;;;;;;19.30;36.48;103233.56;5073779;28;20028;-30
2022/03/27 08:06:25;;;;;;;4.90;4.07;;;;;;;19.57;35.73;103238.66;5073061;28;20039;-31
2022/03/27 08:08:50;;;;;;;3.90;3.60;;;;;;;19.63;35.17;103238.75;5073853;28;20057;-30
2022/03/27 08:11:15;;;;;;;8.23;4.63;;;;;;;19.73;34.29;103244.00;5073668;28;20035;-31
2022/03/27 08:13:41;;;;;;;5.80;4.60;;;;;;;19.59;35.68;103247.50;5072358;28;20028;-31
2022/03/27 08:16:06;;;;;;;6.68;4.18;;;;;;;19.61;35.33;103246.28;5074284;28;20033;-31
2022/03/27 08:18:33;;;;;;;4.25;3.78;;;;;;;19.53;35.86;103241.72;5072584;28;20040;-31
2022/03/27 08:20:58;;;;;;;4.60;4.05;;;;;;;19.37;36.04;103233.69;5073565;28;20029;-31
2022/03/27 08:23:23;;;;;;;5.07;4.55;;;;;;;19.21;36.82;103234.66;5072970;28;20059;-32
2022/03/27 08:28:32;;;;;;;4.38;3.92;;;;;;;19.64;35.20;103235.00;5072873;28;20071;-30
2022/03/27 08:30:58;;;;;;;4.32;3.92;;;;;;;19.64;35.25;103239.59;5073135;28;20111;-31
2022/03/27 08:33:23;;;;;;;4.65;3.97;;;;;;;20.21;35.00;103236.34;5072863;28;20039;-30
2022/03/27 08:35:49;;;;;;;4.93;4.32;;;;;;;20.27;34.87;103238.31;5072684;28;20479;-31
2022/03/27 08:38:16;;;;;;;5.55;3.70;;;;;;;20.61;34.70;103247.88;5071054;28;20047;-31
2022/03/27 08:40:44;;;;;;;4.40;3.95;;;;;;;20.70;35.40;103243.16;5072784;28;20099;-31
2022/03/27 08:43:12;;;;;;;;;;;;;;;21.28;32.86;103241.28;5072416;28;20467;-31
2022/03/27 08:45:37;;;;;;;5.35;3.78;;;;;;;21.39;33.27;103234.47;5072918;28;19919;-31
2022/03/27 08:48:04;;;;;;;5.07;3.92;;;;;;;21.65;33.36;103231.97;5073070;28;20020;-32
2022/03/27 08:50:34;;;;;;;4.72;4.30;;;;;;;21.47;33.31;103223.38;5070857;28;20037;-31
2022/03/27 08:53:05;;;;;;;4.68;4.07;;;;;;;21.55;33.46;103225.13;5073076;28;20414;-31
2022/03/27 08:55:37;;;;;;;5.88;3.88;;;;;;;21.96;32.44;103217.03;5073120;28;20020;-31
2022/03/27 08:58:03;;;;;;;4.55;3.63;;;;;;;22.02;31.94;103213.47;5072685;28;20047;-31
2022/03/27 09:00:33;;;;;;;4.70;4.00;;;;;;;21.74;30.98;103216.22;5071548;28;20028;-31
2022/03/27 09:03:01;;;;;;;6.88;4.40;;;;;;;20.46;33.26;103222.38;5072456;28;20587;-31
2022/03/27 09:05:26;;;;;;;6.80;4.13;;;;;;;20.95;33.40;103224.50;5071208;28;20029;-32
2022/03/27 09:07:53;;;;;;;4.78;4.20;;;;;;;21.53;32.32;103228.06;5072503;28;20041;-31
2022/03/27 09:10:19;;;;;;;6.70;4.35;;;;;;;21.77;30.77;103231.41;5072199;28;20407;-32
2022/03/27 09:12:46;;;;;;;4.23;3.70;;;;;;;21.64;30.58;103221.19;5070833;28;20090;-33
2022/03/27 09:15:12;;;;;;;4.65;4.20;;;;;;;21.31;31.29;103221.72;5072231;28;20461;-32
2022/03/27 09:18:04;;;;;;;4.60;4.13;;;;;;;20.93;32.34;103223.81;5072399;28;20031;-32
2022/03/27 09:20:43;;;;;;;7.40;4.28;;;;;;;21.32;31.54;103228.03;5072307;28;20056;-31
2022/03/27 09:23:22;;;;;;;7.40;4.53;;;;;;;21.04;32.04;103218.72;5071546;28;20401;-32
2022/03/27 09:26:00;;;;;;;6.68;4.38;;;;;;;21.56;30.35;103213.94;5072759;28;20025;-31
2022/03/27 09:28:28;;;;;;;5.78;4.20;;;;;;;21.83;30.48;103216.94;5064595;28;20360;-33
2022/03/27 09:30:54;;;;;;;6.70;4.03;;;;;;;21.94;30.44;103215.53;5072172;28;20033;-32
2022/03/27 09:33:36;;;;;;;9.38;4.47;;;;;;;21.59;29.96;103223.66;5071189;28;20547;-32
2022/03/27 09:36:32;;;;;;;6.05;4.35;;;;;;;21.45;30.61;103217.22;5070531;28;20037;-32
2022/03/27 09:39:13;;;;;;;4.70;4.20;;;;;;;21.27;29.91;103218.53;5069756;28;20048;-32
2022/03/27 09:41:45;;;;;;;6.72;4.13;;;;;;;20.88;31.62;103218.09;5072291;28;20020;-32
2022/03/27 09:44:22;;;;;;;5.15;4.30;;;;;;;21.00;31.31;103211.91;5072355;28;20117;-32
2022/03/27 09:47:00;;;;;;;6.15;4.15;;;;;;;20.98;31.91;103215.88;5071663;28;20036;-31
2022/03/27 09:49:28;;;;;;;6.57;4.43;;;;;;;21.08;30.86;103219.16;5070055;28;20033;-31
2022/03/27 09:51:59;;;;;;;4.82;3.50;;;;;;;20.93;30.82;103212.88;5071847;28;20388;-32
2022/03/27 09:54:26;;;;;;;5.53;3.78;;;;;;;20.28;31.29;103218.16;5070273;28;20451;-30
2022/03/27 09:56:52;;;;;;;5.03;4.03;;;;;;;19.89;32.97;103208.31;5071236;28;20021;-30
2022/03/27 09:59:32;;;;;;;7.85;4.57;;;;;;;19.78;32.12;103210.69;5071045;28;20052;-32
2022/03/27 10:02:26;;;;;;;5.93;4.93;;;;;;;19.60;33.58;103210.97;5070679;28;20028;-32
2022/03/27 10:05:05;;;;;;;7.28;4.18;;;;;;;19.56;32.67;103209.63;5070828;28;20028;-32
2022/03/27 10:07:48;;;;;;;6.07;4.03;;;;;;;19.43;33.79;103211.13;5069272;28;20550;-31
2022/03/27 10:10:22;;;;;;;6.38;4.63;;;;;;;19.46;33.52;103205.28;5065633;28;20097;-31
2022/03/27 10:12:52;;;;;;;7.40;4.43;;;;;;;18.87;33.83;103205.00;5069555;28;20033;-31
2022/03/27 10:15:20;;;;;;;6.45;4.43;;;;;;;18.73;34.87;103205.75;5071166;28;20073;-32
2022/03/27 10:17:55;;;;;;;10.95;4.07;;;;;;;18.54;35.50;103193.41;5071129;28;20451;-31
2022/03/27 10:20:22;;;;;;;4.93;3.97;;;;;;;18.38;35.46;103194.34;5071486;28;20028;-31
2022/03/27 10:22:50;;;;;;;6.68;5.00;;;;;;;17.81;36.34;103186.31;5069303;28;20016;-32
2022/03/27 10:25:17;;;;;;;8.77;4.93;;;;;;;17.81;37.14;103186.31;5069963;28;20372;-31
2022/03/27 10:27:44;;;;;;;9.73;4.70;;;;;;;17.81;36.81;103186.31;5071478;28;20024;-32
2022/03/27 10:30:11;;;;;;;7.45;4.38;;;;;;;17.47;37.41;103190.91;5069634;28;20387;-33
2022/03/27 10:32:38;;;;;;;6.72;4.63;;;;;;;17.20;38.54;103189.38;5069557;28;20043;-32
2022/03/27 10:35:14;;;;;;;5.32;4.10;;;;;;;17.62;37.28;103192.94;5071761;28;20029;-33
2022/03/27 10:37:50;;;;;;;10.07;4.80;;;;;;;17.51;38.44;103185.97;5070217;28;20486;-32
2022/03/27 10:40:25;;;;;;;8.15;5.22;;;;;;;18.04;37.85;103181.84;5069271;28;20040;-30
2022/03/27 10:43:09;;;;;;;6.47;4.82;;;;;;;18.41;35.95;103180.34;5070974;28;20032;-32
2022/03/27 10:45:36;;;;;;;8.00;4.90;;;;;;;18.67;35.75;103187.34;5070293;28;20347;-30
2022/03/27 10:48:13;;;;;;;8.15;4.70;;;;;;;18.65;35.78;103179.38;5071389;28;20021;-31
2022/03/27 10:50:48;;;;;;;8.32;4.60;;;;;;;18.48;35.11;103178.59;5071369;28;20143;-32
2022/03/27 10:53:14;;;;;;;7.93;4.80;;;;;;;18.38;35.94;103164.34;5070875;28;20025;-32
2022/03/27 10:55:43;;;;;;;8.65;4.88;;;;;;;18.19;36.05;103174.63;5071051;28;20100;-30
2022/03/27 10:58:29;;;;;;;12.35;4.47;;;;;;;18.05;35.75;103167.19;5069297;28;20608;-30
2022/03/27 11:00:55;;;;;;;7.50;4.40;;;;;;;17.89;36.05;103159.91;5069425;28;20036;-32
2022/03/27 11:04:12;;;;;;;8.88;3.90;;;;;;;18.02;33.85;103153.91;5069320;28;20031;-31
2022/03/27 11:06:39;;;;;;;7.35;4.10;;;;;;;18.26;33.08;103154.84;5021815;28;20040;-31
2022/03/27 11:09:07;;;;;;;7.78;4.22;;;;;;;18.30;31.34;103159.78;5065685;28;20044;-31
2022/03/27 11:11:35;;;;;;;;;;;;;;;18.21;30.92;103149.91;5070153;28;20025;-31
2022/03/27 11:14:02;;;;;;;6.30;3.47;;;;;;;18.43;29.87;103148.28;5073591;28;19994;-31
2022/03/27 11:16:27;;;;;;;7.43;4.22;;;;;;;18.55;29.69;103141.41;5074229;28;20043;-31
2022/03/27 11:18:53;;;;;;;7.35;3.90;;;;;;;18.64;29.78;103148.53;5075088;28;20037;-31
2022/03/27 11:21:27;;;;;;;6.65;4.25;;;;;;;19.35;29.58;103144.78;5074209;28;20046;-32
2022/03/27 11:24:15;;;;;;;8.68;3.58;;;;;;;19.43;29.24;103152.91;5074697;28;20048;-31
2022/03/27 11:26:41;;;;;;;8.63;3.95;;;;;;;20.04;29.46;103144.63;5072798;28;20037;-30
2022/03/27 11:29:23;;;;;;;6.10;3.75;;;;;;;20.99;26.79;103146.41;5074310;28;20161;-32
2022/03/27 11:32:08;;;;;;;6.30;3.40;;;;;;;21.39;25.30;103138.59;5074748;28;20114;-30
2022/03/27 11:34:37;;;;;;;5.95;3.35;;;;;;;21.75;24.33;103140.31;5074655;28;20017;-30
2022/03/27 11:37:25;;;;;;;7.40;3.30;;;;;;;22.04;22.09;103142.81;5074229;28;20020;-31